Time;durP1;ratioP1;P1;durP2;ratioP2;P2;SDS_P1;SDS_P2;PMS_P1;PMS_P2;Temp;Humidity;BMP_temperature;BMP_pressure;BME280_temperature;BME280_humidity;BME280_pressure;Samples;Min_cycle;Max_cycle;Signal;HPM_P1;HPM_P2
2021/11/09 00:02:33;;;;;;;27.40;6.25;;;;;;;;;;4979500;28;20840;-61
2021/11/09 00:05:03;;;;;;;19.23;5.80;;;;;;;;;;4981577;28;20153;-60
2021/11/09 00:07:48;;;;;;;21.15;6.22;;;;;;;;;;4985743;28;20048;-59
2021/11/09 00:10:14;;;;;;;22.77;6.55;;;;;;;;;;4974002;28;20149;-61
2021/11/09 00:12:44;;;;;;;14.63;5.32;;;;;;;;;;4991505;28;20021;-60
2021/11/09 00:15:15;;;;;;;24.92;6.55;;;;;;;;;;4975570;28;20417;-62
2021/11/09 00:17:43;;;;;;;20.60;6.38;;;;;;;;;;4988376;28;20702;-61
2021/11/09 00:20:12;;;;;;;23.75;5.80;;;;;;;;;;4990750;28;20038;-60
2021/11/09 00:22:41;;;;;;;19.50;6.35;;;;;;;;;;4991602;28;20042;-60
2021/11/09 00:25:09;;;;;;;24.63;5.68;;;;;;;;;;4976771;28;20113;-60
2021/11/09 00:27:34;;;;;;;17.67;5.88;;;;;;;;;;4989246;28;20038;-61
2021/11/09 00:30:02;;;;;;;13.77;5.25;;;;;;;;;;4988691;28;20060;-61
2021/11/09 00:32:28;;;;;;;21.98;6.55;;;;;;;;;;4985528;28;20045;-60
2021/11/09 00:34:54;;;;;;;21.05;6.28;;;;;;;;;;4989571;28;20025;-60
2021/11/09 00:37:19;;;;;;;22.27;5.85;;;;;;;;;;4965059;28;20480;-60
2021/11/09 00:39:45;;;;;;;15.80;5.03;;;;;;;;;;4988207;28;20034;-60
2021/11/09 00:42:11;;;;;;;31.98;5.20;;;;;;;;;;4988062;28;20036;-60
2021/11/09 00:44:38;;;;;;;15.05;5.75;;;;;;;;;;4989005;28;20434;-60
2021/11/09 00:47:07;;;;;;;17.52;5.45;;;;;;;;;;4987644;28;20088;-60
2021/11/09 00:49:33;;;;;;;20.42;5.35;;;;;;;;;;4989346;28;20029;-60
2021/11/09 00:52:01;;;;;;;13.00;5.43;;;;;;;;;;4975461;28;20059;-60
2021/11/09 00:54:28;;;;;;;13.95;5.30;;;;;;;;;;4990107;28;20125;-59
2021/11/09 00:56:54;;;;;;;25.85;5.18;;;;;;;;;;5002054;28;20113;-61
2021/11/09 00:59:19;;;;;;;15.32;5.07;;;;;;;;;;4970590;28;20044;-60
2021/11/09 01:01:44;;;;;;;17.80;5.15;;;;;;;;;;4969533;28;20049;-60
2021/11/09 01:04:12;;;;;;;26.05;5.90;;;;;;;;;;4986741;28;20124;-60
2021/11/09 01:06:40;;;;;;;35.55;6.30;;;;;;;;;;4987773;28;20196;-60
2021/11/09 01:09:06;;;;;;;16.38;5.68;;;;;;;;;;4970285;28;20418;-58
2021/11/09 01:11:33;;;;;;;16.45;5.10;;;;;;;;;;4985491;28;20493;-60
2021/11/09 01:13:58;;;;;;;16.75;6.13;;;;;;;;;;4989191;28;20053;-61
2021/11/09 01:16:27;;;;;;;19.52;5.60;;;;;;;;;;4979635;28;20021;-60
2021/11/09 01:18:56;;;;;;;16.90;5.55;;;;;;;;;;4975816;28;21047;-61
2021/11/09 01:21:22;;;;;;;15.98;5.28;;;;;;;;;;4990565;28;20044;-60
2021/11/09 01:23:50;;;;;;;25.33;5.57;;;;;;;;;;4987833;28;20033;-59
2021/11/09 01:26:16;;;;;;;15.05;5.35;;;;;;;;;;4987521;28;20026;-60
2021/11/09 01:28:44;;;;;;;11.18;5.53;;;;;;;;;;4990320;28;20166;-60
2021/11/09 01:31:12;;;;;;;25.40;5.57;;;;;;;;;;4992762;28;20536;-60
2021/11/09 01:33:40;;;;;;;10.98;5.03;;;;;;;;;;4993219;28;20014;-60
2021/11/09 01:36:08;;;;;;;18.25;6.60;;;;;;;;;;4967502;28;20110;-59
2021/11/09 01:38:37;;;;;;;20.55;6.97;;;;;;;;;;4994311;28;20021;-61
2021/11/09 01:41:08;;;;;;;17.40;5.80;;;;;;;;;;4988192;28;20058;-61
2021/11/09 01:43:34;;;;;;;20.15;6.20;;;;;;;;;;5007618;28;20053;-60
2021/11/09 01:46:00;;;;;;;29.95;7.35;;;;;;;;;;4992195;28;20920;-59
2021/11/09 01:48:26;;;;;;;18.77;6.20;;;;;;;;;;4992731;28;20033;-60
2021/11/09 01:50:53;;;;;;;19.45;6.78;;;;;;;;;;4989004;28;20056;-59
2021/11/09 01:53:21;;;;;;;17.38;6.45;;;;;;;;;;4992844;28;20473;-60
2021/11/09 01:55:47;;;;;;;18.95;6.45;;;;;;;;;;4992462;28;20045;-60
2021/11/09 01:58:15;;;;;;;20.55;7.60;;;;;;;;;;4988358;28;20120;-60
2021/11/09 02:00:48;;;;;;;27.52;7.38;;;;;;;;;;4989719;28;20038;-60
2021/11/09 02:03:16;;;;;;;20.98;6.38;;;;;;;;;;4986835;28;20030;-60
2021/11/09 02:05:44;;;;;;;23.17;7.32;;;;;;;;;;4974327;28;20064;-60
2021/11/09 02:08:10;;;;;;;20.63;7.38;;;;;;;;;;4989468;28;20037;-61
2021/11/09 02:10:39;;;;;;;20.73;7.63;;;;;;;;;;4987525;28;20022;-60
2021/11/09 02:13:10;;;;;;;23.10;8.02;;;;;;;;;;4985311;28;20574;-61
2021/11/09 02:15:36;;;;;;;22.58;7.88;;;;;;;;;;5005224;28;20072;-59
2021/11/09 02:18:05;;;;;;;18.55;8.15;;;;;;;;;;4991285;28;20018;-60
2021/11/09 02:20:32;;;;;;;26.10;7.22;;;;;;;;;;4988054;28;20025;-62
2021/11/09 02:22:58;;;;;;;22.05;7.88;;;;;;;;;;4992820;28;20041;-62
2021/11/09 02:25:28;;;;;;;22.20;7.65;;;;;;;;;;4991854;28;20045;-61
2021/11/09 02:27:53;;;;;;;18.60;6.57;;;;;;;;;;4990939;28;20026;-61
2021/11/09 02:30:23;;;;;;;18.45;8.48;;;;;;;;;;4990751;28;20057;-60
2021/11/09 02:32:51;;;;;;;19.30;7.97;;;;;;;;;;4973290;28;20115;-59
2021/11/09 02:35:17;;;;;;;23.58;8.52;;;;;;;;;;4991661;28;20050;-60
2021/11/09 02:37:45;;;;;;;24.65;7.35;;;;;;;;;;4993397;28;20297;-60
2021/11/09 02:40:11;;;;;;;23.50;7.65;;;;;;;;;;4978481;28;20139;-60
2021/11/09 02:42:38;;;;;;;24.15;6.50;;;;;;;;;;4990139;28;20034;-60
2021/11/09 02:45:13;;;;;;;18.27;7.25;;;;;;;;;;4987514;28;20048;-60
2021/11/09 02:47:38;;;;;;;;;;;;;;;;;;4990901;28;20554;-60
2021/11/09 02:50:09;;;;;;;19.25;7.20;;;;;;;;;;4990501;28;19922;-60
2021/11/09 02:52:45;;;;;;;23.08;7.28;;;;;;;;;;4974148;28;20049;-59
2021/11/09 02:55:12;;;;;;;23.83;6.55;;;;;;;;;;4973063;28;20029;-61
2021/11/09 03:00:28;;;;;;;26.83;8.47;;;;;;;;;;4973476;28;20034;-59
2021/11/09 03:03:06;;;;;;;24.55;8.40;;;;;;;;;;4988371;28;20539;-60
2021/11/09 03:05:49;;;;;;;18.30;7.00;;;;;;;;;;4989205;28;20103;-59
2021/11/09 03:08:36;;;;;;;25.65;7.35;;;;;;;;;;4990717;28;20041;-60
2021/11/09 03:11:04;;;;;;;18.88;7.97;;;;;;;;;;4990812;28;20042;-61
2021/11/09 03:13:30;;;;;;;25.25;8.57;;;;;;;;;;4989954;28;20040;-61
2021/11/09 03:16:02;;;;;;;22.73;7.82;;;;;;;;;;4962706;28;20022;-60
2021/11/09 03:18:30;;;;;;;22.58;6.95;;;;;;;;;;4990098;28;20056;-60
2021/11/09 03:40:28;;;;;;;24.85;7.38;;;;;;;;;;4990069;28;20030;-60
2021/11/09 03:45:40;;;;;;;29.37;6.97;;;;;;;;;;4987769;28;20052;-58
2021/11/09 03:48:11;;;;;;;22.73;7.85;;;;;;;;;;4967958;28;20125;-60
2021/11/09 03:50:39;;;;;;;28.65;7.70;;;;;;;;;;4986882;28;20044;-60
2021/11/09 03:53:16;;;;;;;19.70;8.07;;;;;;;;;;4987042;28;20026;-61
2021/11/09 03:58:26;;;;;;;23.25;6.93;;;;;;;;;;4987246;28;20030;-60
2021/11/09 04:06:01;;;;;;;18.48;6.70;;;;;;;;;;4986751;28;20037;-59
2021/11/09 04:11:24;;;;;;;32.33;7.77;;;;;;;;;;4972132;28;20041;-61
2021/11/09 04:13:58;;;;;;;21.38;6.97;;;;;;;;;;4986916;28;20037;-60
2021/11/09 04:16:55;;;;;;;22.30;6.65;;;;;;;;;;4987567;28;20985;-61
2021/11/09 04:19:56;;;;;;;27.45;6.68;;;;;;;;;;4986136;28;20037;-60
2021/11/09 05:02:48;;;;;;;31.15;7.70;;;;;;;;;;4988503;28;20124;-60
2021/11/09 05:10:45;;;;;;;20.20;6.35;;;;;;;;;;4986941;28;20042;-60
2021/11/09 05:13:10;;;;;;;15.95;5.63;;;;;;;;;;4985270;28;20034;-59
2021/11/09 05:15:36;;;;;;;24.55;7.03;;;;;;;;;;4989426;28;20572;-59
2021/11/09 05:18:06;;;;;;;26.20;6.13;;;;;;;;;;4988658;28;21942;-59
2021/11/09 05:20:32;;;;;;;25.45;7.28;;;;;;;;;;4981709;28;20821;-59
2021/11/09 05:23:03;;;;;;;22.58;6.38;;;;;;;;;;4988203;28;20030;-59
2021/11/09 05:25:31;;;;;;;20.58;6.68;;;;;;;;;;4970376;28;20446;-61
2021/11/09 05:27:57;;;;;;;22.02;6.30;;;;;;;;;;4971704;28;20113;-60
2021/11/09 05:30:27;;;;;;;16.52;7.03;;;;;;;;;;4984444;28;20068;-60
2021/11/09 05:32:58;;;;;;;16.52;6.57;;;;;;;;;;4987436;28;20108;-59
2021/11/09 05:35:26;;;;;;;29.98;7.03;;;;;;;;;;4987551;28;20049;-61
2021/11/09 05:37:53;;;;;;;21.80;7.10;;;;;;;;;;4987720;28;20104;-61
2021/11/09 05:40:28;;;;;;;30.48;6.82;;;;;;;;;;4984558;28;20030;-60
2021/11/09 05:42:53;;;;;;;20.42;6.82;;;;;;;;;;4986003;28;20819;-60
2021/11/09 05:45:21;;;;;;;40.95;8.40;;;;;;;;;;4987109;28;20734;-59
2021/11/09 05:47:47;;;;;;;28.23;8.02;;;;;;;;;;4967725;28;20048;-60
2021/11/09 05:50:12;;;;;;;28.15;7.95;;;;;;;;;;4982247;28;20037;-60
2021/11/09 05:52:40;;;;;;;26.77;7.80;;;;;;;;;;4986609;28;20520;-59
2021/11/09 05:55:06;;;;;;;44.47;10.45;;;;;;;;;;4970616;28;20818;-60
2021/11/09 05:57:34;;;;;;;35.28;9.00;;;;;;;;;;4989330;28;20049;-60
2021/11/09 06:00:03;;;;;;;43.63;10.73;;;;;;;;;;4962989;28;20030;-61
2021/11/09 06:02:33;;;;;;;50.50;10.00;;;;;;;;;;4989377;28;20815;-59
2021/11/09 06:05:01;;;;;;;32.78;9.52;;;;;;;;;;4973414;28;20041;-60
2021/11/09 06:07:31;;;;;;;38.83;9.85;;;;;;;;;;4989538;28;20038;-60
2021/11/09 06:09:58;;;;;;;36.08;9.23;;;;;;;;;;4990484;28;20044;-60
2021/11/09 06:12:24;;;;;;;35.20;8.23;;;;;;;;;;5005487;28;20117;-58
2021/11/09 06:14:52;;;;;;;35.45;9.45;;;;;;;;;;4986711;28;20052;-59
2021/11/09 06:17:21;;;;;;;28.88;9.40;;;;;;;;;;4994013;28;20029;-60
2021/11/09 06:19:51;;;;;;;56.97;9.70;;;;;;;;;;5005511;28;21144;-59
2021/11/09 06:22:19;;;;;;;37.83;9.02;;;;;;;;;;4989141;28;20082;-59
2021/11/09 06:24:45;;;;;;;24.88;7.97;;;;;;;;;;4995503;28;20376;-58
2021/11/09 06:27:17;;;;;;;26.20;8.07;;;;;;;;;;4994512;28;20125;-60
2021/11/09 06:29:47;;;;;;;41.07;9.27;;;;;;;;;;4993501;28;20068;-59
2021/11/09 06:32:14;;;;;;;40.85;9.27;;;;;;;;;;4991813;28;20113;-59
2021/11/09 06:34:43;;;;;;;30.27;8.90;;;;;;;;;;4993075;28;20022;-60
2021/11/09 06:37:11;;;;;;;44.90;9.52;;;;;;;;;;4973986;28;20041;-59
2021/11/09 06:39:36;;;;;;;35.15;9.27;;;;;;;;;;4990178;28;20573;-60
2021/11/09 06:42:02;;;;;;;29.90;9.30;;;;;;;;;;4993118;28;20072;-58
2021/11/09 06:44:33;;;;;;;48.92;9.85;;;;;;;;;;4992175;28;20496;-58
2021/11/09 06:47:03;;;;;;;35.53;8.82;;;;;;;;;;4992667;28;20493;-58
2021/11/09 06:49:31;;;;;;;35.60;9.93;;;;;;;;;;4974804;28;20029;-60
2021/11/09 06:52:07;;;;;;;31.05;10.30;;;;;;;;;;4980074;28;20045;-59
2021/11/09 06:54:37;;;;;;;36.30;9.80;;;;;;;;;;4993435;28;20030;-61
2021/11/09 06:57:07;;;;;;;29.08;9.50;;;;;;;;;;4992600;28;20025;-58
2021/11/09 06:59:37;;;;;;;45.08;9.57;;;;;;;;;;4994341;28;20034;-60
2021/11/09 07:02:10;;;;;;;56.17;10.60;;;;;;;;;;4971370;28;20753;-58
2021/11/09 07:04:36;;;;;;;38.72;10.20;;;;;;;;;;4975022;28;20048;-58
2021/11/09 07:07:06;;;;;;;32.22;9.38;;;;;;;;;;4989265;28;20053;-60
2021/11/09 07:09:34;;;;;;;44.17;9.95;;;;;;;;;;4990223;28;20038;-59
2021/11/09 07:12:00;;;;;;;42.50;10.40;;;;;;;;;;4991061;28;20045;-60
2021/11/09 07:14:31;;;;;;;45.78;9.60;;;;;;;;;;4988330;28;20479;-60
2021/11/09 07:16:57;;;;;;;36.75;10.75;;;;;;;;;;4990243;28;20037;-60
2021/11/09 07:19:25;;;;;;;33.08;9.48;;;;;;;;;;4990417;28;20052;-60
2021/11/09 07:21:55;;;;;;;34.50;9.60;;;;;;;;;;4985422;28;20124;-59
2021/11/09 07:24:22;;;;;;;29.33;8.73;;;;;;;;;;4987382;28;20048;-58
2021/11/09 07:26:47;;;;;;;34.33;7.95;;;;;;;;;;4989968;28;20160;-59
2021/11/09 07:29:18;;;;;;;22.73;8.43;;;;;;;;;;4975497;28;20033;-58
2021/11/09 07:31:43;;;;;;;33.55;8.85;;;;;;;;;;4988998;28;20084;-59
2021/11/09 07:34:13;;;;;;;25.67;7.90;;;;;;;;;;4991715;28;20083;-59
2021/11/09 07:36:39;;;;;;;33.95;7.57;;;;;;;;;;4988625;28;20757;-59
2021/11/09 07:39:07;;;;;;;29.50;8.48;;;;;;;;;;4976000;28;20052;-58
2021/11/09 07:41:37;;;;;;;21.38;7.82;;;;;;;;;;4988991;28;20038;-59
2021/11/09 07:44:07;;;;;;;27.02;6.53;;;;;;;;;;4987878;28;20048;-58
2021/11/09 07:46:38;;;;;;;25.00;7.13;;;;;;;;;;4991160;28;20049;-59
2021/11/09 07:49:05;;;;;;;23.13;7.82;;;;;;;;;;4989003;28;20092;-59
2021/11/09 07:51:35;;;;;;;28.25;7.30;;;;;;;;;;4971354;28;20064;-60
2021/11/09 07:54:06;;;;;;;20.13;6.47;;;;;;;;;;4986826;28;20033;-59
2021/11/09 07:56:37;;;;;;;25.85;6.15;;;;;;;;;;4992171;28;20098;-59
2021/11/09 08:01:45;;;;;;;26.75;7.10;;;;;;;;;;4988242;28;20029;-59
2021/11/09 08:04:24;;;;;;;30.50;6.78;;;;;;;;;;4989558;28;22013;-59
2021/11/09 08:06:53;;;;;;;31.52;7.03;;;;;;;;;;4971827;28;20018;-60
2021/11/09 08:11:51;;;;;;;33.35;7.60;;;;;;;;;;4983253;28;20038;-58
2021/11/09 08:14:17;;;;;;;22.70;6.45;;;;;;;;;;4985845;28;20099;-58
2021/11/09 08:16:43;;;;;;;20.40;6.50;;;;;;;;;;4987734;28;20038;-58
2021/11/09 08:19:08;;;;;;;39.58;6.93;;;;;;;;;;4990132;28;20041;-58
2021/11/09 08:21:39;;;;;;;22.95;6.45;;;;;;;;;;4989242;28;20601;-58
2021/11/09 08:24:04;;;;;;;29.38;7.47;;;;;;;;;;4989911;28;20029;-59
2021/11/09 08:26:35;;;;;;;23.70;7.43;;;;;;;;;;4989846;28;20037;-59
2021/11/09 08:29:04;;;;;;;21.02;7.53;;;;;;;;;;4989588;28;20042;-59
2021/11/09 08:31:31;;;;;;;31.25;7.60;;;;;;;;;;4989017;28;20123;-60
2021/11/09 08:33:57;;;;;;;24.90;7.10;;;;;;;;;;4986978;28;20473;-60
2021/11/09 08:36:31;;;;;;;21.25;7.30;;;;;;;;;;4988921;28;20037;-60
2021/11/09 08:39:19;;;;;;;21.80;7.28;;;;;;;;;;4990627;28;20107;-60
2021/11/09 08:42:11;;;;;;;19.85;7.18;;;;;;;;;;4989270;28;20041;-60
2021/11/09 08:44:42;;;;;;;27.65;7.53;;;;;;;;;;4986656;28;20041;-60
2021/11/09 08:47:12;;;;;;;22.52;6.80;;;;;;;;;;5004435;28;20057;-59
2021/11/09 08:49:40;;;;;;;19.58;6.53;;;;;;;;;;5006727;28;20205;-60
2021/11/09 08:52:15;;;;;;;20.63;6.60;;;;;;;;;;5005192;28;20568;-59
2021/11/09 09:05:11;;;;;;;18.02;5.40;;;;;;;;;;4990826;28;20041;-60
2021/11/09 09:07:36;;;;;;;25.95;6.75;;;;;;;;;;4967475;28;20088;-59
2021/11/09 09:10:05;;;;;;;24.65;6.20;;;;;;;;;;4966636;28;20584;-61
2021/11/09 09:12:32;;;;;;;24.45;6.82;;;;;;;;;;4989480;28;20030;-59
2021/11/09 09:14:57;;;;;;;28.90;6.30;;;;;;;;;;4988948;28;20469;-59
2021/11/09 09:17:25;;;;;;;17.40;6.50;;;;;;;;;;4989504;28;20044;-60
2021/11/09 09:19:59;;;;;;;19.30;6.75;;;;;;;;;;4989035;28;20044;-60
2021/11/09 09:22:34;;;;;;;17.35;6.18;;;;;;;;;;4970103;28;20033;-60
2021/11/09 09:27:37;;;;;;;30.73;5.63;;;;;;;;;;4987846;28;20018;-59
2021/11/09 09:30:25;;;;;;;29.42;6.30;;;;;;;;;;4974760;28;20037;-59
2021/11/09 09:57:27;;;;;;;25.65;6.22;;;;;;;;;;4992108;28;20492;-59
2021/11/09 09:59:52;;;;;;;19.48;5.22;;;;;;;;;;4993306;28;20170;-59
2021/11/09 10:02:24;;;;;;;22.88;5.38;;;;;;;;;;4992781;28;20806;-59
2021/11/09 10:04:54;;;;;;;24.45;5.88;;;;;;;;;;4994050;28;20037;-59
2021/11/09 10:07:30;;;;;;;22.85;5.38;;;;;;;;;;4991754;28;20033;-59
2021/11/09 10:09:58;;;;;;;21.77;5.78;;;;;;;;;;4979534;28;21419;-59
2021/11/09 10:12:33;;;;;;;19.52;6.15;;;;;;;;;;5006978;28;20077;-58
2021/11/09 10:15:01;;;;;;;18.75;5.10;;;;;;;;;;4987191;28;20108;-61
2021/11/09 10:17:27;;;;;;;18.40;5.80;;;;;;;;;;4992328;28;20018;-59
2021/11/09 10:19:56;;;;;;;13.73;5.32;;;;;;;;;;5007867;28;20168;-58
2021/11/09 10:22:25;;;;;;;13.68;5.82;;;;;;;;;;4994959;28;20042;-59
2021/11/09 10:25:07;;;;;;;19.65;5.47;;;;;;;;;;4985272;28;20033;-59
2021/11/09 10:27:38;;;;;;;27.08;6.03;;;;;;;;;;4989701;28;20073;-57
2021/11/09 10:30:07;;;;;;;24.70;5.70;;;;;;;;;;4980055;28;20484;-59
2021/11/09 10:32:38;;;;;;;18.25;6.30;;;;;;;;;;4986765;28;20041;-58
2021/11/09 10:35:07;;;;;;;16.85;5.68;;;;;;;;;;4970155;28;20037;-58
2021/11/09 10:37:34;;;;;;;17.50;5.57;;;;;;;;;;4971099;28;20394;-58
2021/11/09 10:40:04;;;;;;;20.73;6.65;;;;;;;;;;4986254;28;20032;-59
2021/11/09 10:42:37;;;;;;;22.23;6.38;;;;;;;;;;4987359;28;20519;-58
2021/11/09 10:45:11;;;;;;;20.25;6.25;;;;;;;;;;4987396;28;20042;-59
2021/11/09 10:47:41;;;;;;;24.00;6.78;;;;;;;;;;4972651;28;20045;-59
2021/11/09 10:50:18;;;;;;;18.42;5.85;;;;;;;;;;4978961;28;20037;-59
2021/11/09 10:52:43;;;;;;;25.17;6.63;;;;;;;;;;4991186;28;20104;-59
2021/11/09 10:55:23;;;;;;;29.42;7.50;;;;;;;;;;4988509;28;20860;-59
2021/11/09 11:03:19;;;;;;;18.08;6.25;;;;;;;;;;4990457;28;20161;-59
2021/11/09 11:05:50;;;;;;;21.25;6.28;;;;;;;;;;4991477;28;20061;-59
2021/11/09 11:08:17;;;;;;;17.20;5.50;;;;;;;;;;4991716;28;20034;-59
2021/11/09 11:10:45;;;;;;;14.02;5.68;;;;;;;;;;4991901;28;20022;-59
2021/11/09 11:13:15;;;;;;;21.52;5.82;;;;;;;;;;4989074;28;20053;-59
2021/11/09 11:15:59;;;;;;;19.80;5.82;;;;;;;;;;4990945;28;20057;-59
2021/11/09 11:18:29;;;;;;;25.27;6.50;;;;;;;;;;4986453;28;20045;-59
2021/11/09 11:20:57;;;;;;;15.63;4.97;;;;;;;;;;4982658;28;20034;-59
2021/11/09 11:23:24;;;;;;;17.27;5.00;;;;;;;;;;4991793;28;20045;-59
2021/11/09 11:25:49;;;;;;;20.85;6.03;;;;;;;;;;4992132;28;20037;-59
2021/11/09 11:28:17;;;;;;;23.73;5.95;;;;;;;;;;4988393;28;20087;-61
2021/11/09 11:30:48;;;;;;;14.65;5.20;;;;;;;;;;4989281;28;20108;-59
2021/11/09 11:33:16;;;;;;;18.67;5.55;;;;;;;;;;4991697;28;20044;-59
2021/11/09 11:35:46;;;;;;;24.05;5.28;;;;;;;;;;4986912;28;20034;-59
2021/11/09 11:38:14;;;;;;;15.98;5.45;;;;;;;;;;4988393;28;20025;-59
2021/11/09 11:40:46;;;;;;;20.83;5.45;;;;;;;;;;4988300;28;20030;-60
2021/11/09 11:43:34;;;;;;;21.67;5.72;;;;;;;;;;4971072;28;21338;-59
2021/11/09 11:46:05;;;;;;;19.60;5.53;;;;;;;;;;4976806;28;20064;-60
2021/11/09 11:49:02;;;;;;;24.63;6.35;;;;;;;;;;4992617;28;20037;-59
2021/11/09 11:51:37;;;;;;;17.30;5.90;;;;;;;;;;4957423;28;20043;-60
2021/11/09 11:54:09;;;;;;;12.25;5.15;;;;;;;;;;5001041;28;20029;-59
2021/11/09 11:57:10;;;;;;;18.60;5.50;;;;;;;;;;4995895;28;20033;-59
2021/11/09 11:59:40;;;;;;;22.42;5.65;;;;;;;;;;4978350;28;20037;-60
2021/11/09 12:02:07;;;;;;;17.88;5.72;;;;;;;;;;4983996;28;21014;-61
2021/11/09 12:04:41;;;;;;;17.33;5.78;;;;;;;;;;4988283;28;20773;-60
2021/11/09 12:07:11;;;;;;;17.05;6.07;;;;;;;;;;4987490;28;20052;-58
2021/11/09 12:09:43;;;;;;;20.70;5.47;;;;;;;;;;4965114;28;20034;-59
2021/11/09 12:12:12;;;;;;;26.75;7.07;;;;;;;;;;4987002;28;20086;-59
2021/11/09 12:14:56;;;;;;;24.00;5.78;;;;;;;;;;4983630;28;20147;-59
2021/11/09 12:17:33;;;;;;;12.70;6.00;;;;;;;;;;4967209;28;20986;-59
2021/11/09 12:20:05;;;;;;;19.27;5.95;;;;;;;;;;4990017;28;20519;-60
2021/11/09 12:22:39;;;;;;;20.38;6.13;;;;;;;;;;4985298;28;20562;-59
2021/11/09 12:25:09;;;;;;;24.98;5.95;;;;;;;;;;4986270;28;20045;-59
2021/11/09 12:27:48;;;;;;;21.67;5.65;;;;;;;;;;4984497;28;20465;-60
2021/11/09 12:30:37;;;;;;;18.75;6.30;;;;;;;;;;5004091;28;20034;-59
2021/11/09 12:33:24;;;;;;;25.90;6.55;;;;;;;;;;4982432;28;20037;-57
2021/11/09 12:35:58;;;;;;;25.10;6.38;;;;;;;;;;4984638;28;20028;-58
2021/11/09 12:38:39;;;;;;;28.05;6.78;;;;;;;;;;5000187;28;20033;-61
2021/11/09 12:41:13;;;;;;;24.98;6.00;;;;;;;;;;4967131;28;20029;-59
2021/11/09 12:43:45;;;;;;;24.77;6.37;;;;;;;;;;4984699;28;20030;-59
2021/11/09 12:48:55;;;;;;;16.63;6.90;;;;;;;;;;4988190;28;20038;-59
2021/11/09 12:51:23;;;;;;;;;;;;;;;;;;4989327;28;20064;-59
2021/11/09 12:53:55;;;;;;;26.95;6.40;;;;;;;;;;4999391;28;20003;-60
2021/11/09 12:56:23;;;;;;;21.23;7.60;;;;;;;;;;4981391;28;20148;-59
2021/11/09 12:59:41;;;;;;;22.98;6.43;;;;;;;;;;4983084;28;20024;-58
2021/11/09 13:07:21;;;;;;;16.60;5.93;;;;;;;;;;4988716;28;20033;-60
2021/11/09 13:09:53;;;;;;;19.05;6.22;;;;;;;;;;4985628;28;20140;-60
2021/11/09 13:12:25;;;;;;;21.05;5.63;;;;;;;;;;4988192;28;20368;-59
2021/11/09 13:14:58;;;;;;;19.60;5.20;;;;;;;;;;4968293;28;20128;-60
2021/11/09 13:17:37;;;;;;;21.10;6.45;;;;;;;;;;4974063;28;20037;-60
2021/11/09 13:20:16;;;;;;;27.23;6.18;;;;;;;;;;5004241;28;20030;-60
2021/11/09 13:22:50;;;;;;;15.50;5.13;;;;;;;;;;4991505;28;20096;-59
2021/11/09 13:25:26;;;;;;;16.27;5.47;;;;;;;;;;4988347;28;20469;-60
2021/11/09 13:27:53;;;;;;;19.00;6.50;;;;;;;;;;4985499;28;20121;-60
2021/11/09 13:30:29;;;;;;;16.73;6.05;;;;;;;;;;4991404;28;20026;-60
2021/11/09 13:32:56;;;;;;;26.15;5.93;;;;;;;;;;4987328;28;20045;-60
2021/11/09 13:35:27;;;;;;;21.42;6.15;;;;;;;;;;4995072;28;20038;-61
2021/11/09 13:38:15;;;;;;;30.05;8.38;;;;;;;;;;4990350;28;20034;-60
2021/11/09 13:40:48;;;;;;;32.38;6.45;;;;;;;;;;4980877;28;20045;-60
2021/11/09 13:43:19;;;;;;;16.42;5.93;;;;;;;;;;4991976;28;20792;-60
2021/11/09 13:45:59;;;;;;;20.25;5.72;;;;;;;;;;4991598;28;20029;-60
2021/11/09 13:48:25;;;;;;;25.90;5.93;;;;;;;;;;4990910;28;20080;-60
2021/11/09 13:50:58;;;;;;;19.02;6.15;;;;;;;;;;4986972;28;20546;-59
2021/11/09 13:53:35;;;;;;;18.83;6.65;;;;;;;;;;4998074;28;20124;-59
2021/11/09 13:56:03;;;;;;;22.90;6.82;;;;;;;;;;4987564;28;20104;-60
2021/11/09 13:58:32;;;;;;;19.38;6.05;;;;;;;;;;4989526;28;20037;-60
2021/11/09 14:01:10;;;;;;;22.17;6.43;;;;;;;;;;4963587;28;20045;-59
2021/11/09 14:04:02;;;;;;;19.05;6.20;;;;;;;;;;4983289;28;20054;-61
2021/11/09 14:14:46;;;;;;;16.70;6.18;;;;;;;;;;4987257;28;20030;-60
2021/11/09 14:17:15;;;;;;;35.03;7.25;;;;;;;;;;4987411;28;20104;-61
2021/11/09 14:19:41;;;;;;;18.95;6.05;;;;;;;;;;4985485;28;20594;-60
2021/11/09 14:22:17;;;;;;;34.38;6.68;;;;;;;;;;4987401;28;20700;-60
2021/11/09 14:24:55;;;;;;;23.70;6.80;;;;;;;;;;4990463;28;20111;-60
2021/11/09 14:27:28;;;;;;;22.95;6.22;;;;;;;;;;4973114;28;20037;-61
2021/11/09 14:29:57;;;;;;;18.40;6.40;;;;;;;;;;4987618;28;20037;-61
2021/11/09 14:32:24;;;;;;;19.30;6.13;;;;;;;;;;4988368;28;20069;-61
2021/11/09 14:35:14;;;;;;;21.95;6.43;;;;;;;;;;4986713;28;20113;-60
2021/11/09 14:37:56;;;;;;;16.25;5.72;;;;;;;;;;4986829;28;20045;-60
2021/11/09 14:40:37;;;;;;;18.90;5.97;;;;;;;;;;4988146;28;20125;-62
2021/11/09 14:43:40;;;;;;;12.73;5.45;;;;;;;;;;4988220;28;20040;-60
2021/11/09 14:46:24;;;;;;;28.80;6.40;;;;;;;;;;4990504;28;20052;-61
2021/11/09 14:48:57;;;;;;;21.63;6.32;;;;;;;;;;4987154;28;20068;-60
2021/11/09 14:51:31;;;;;;;28.38;6.43;;;;;;;;;;4969953;28;20061;-60
2021/11/09 14:54:01;;;;;;;23.45;6.00;;;;;;;;;;4974330;28;20111;-59
2021/11/09 14:56:32;;;;;;;23.20;6.90;;;;;;;;;;4985745;28;20026;-59
2021/11/09 14:59:00;;;;;;;17.17;6.18;;;;;;;;;;4988495;28;20045;-59
2021/11/09 15:01:30;;;;;;;23.23;7.07;;;;;;;;;;4986204;28;20057;-61
2021/11/09 15:03:57;;;;;;;23.20;6.15;;;;;;;;;;4990733;28;20053;-60
2021/11/09 15:06:47;;;;;;;32.90;6.82;;;;;;;;;;4984606;28;23301;-59
2021/11/09 15:30:43;;;;;;;30.65;7.28;;;;;;;;;;4986635;28;20045;-61
2021/11/09 15:33:17;;;;;;;27.88;6.97;;;;;;;;;;4974099;28;20038;-61
2021/11/09 15:35:58;;;;;;;;;;;;;;;;;;4990287;28;20033;-61
2021/11/09 15:38:26;;;;;;;35.17;8.05;;;;;;;;;;4984056;28;19991;-60
2021/11/09 15:40:54;;;;;;;27.50;6.63;;;;;;;;;;4984012;28;20038;-59
2021/11/09 15:43:20;;;;;;;29.25;8.48;;;;;;;;;;5001162;28;20038;-61
2021/11/09 15:45:46;;;;;;;31.08;7.47;;;;;;;;;;4989010;28;20091;-61
2021/11/09 15:48:21;;;;;;;29.30;7.28;;;;;;;;;;4987387;28;20037;-59
2021/11/09 15:50:55;;;;;;;28.20;8.35;;;;;;;;;;4959017;28;20050;-62
2021/11/09 15:53:22;;;;;;;28.25;7.75;;;;;;;;;;4984305;28;20037;-60
2021/11/09 15:55:50;;;;;;;32.10;8.52;;;;;;;;;;4986289;28;20037;-60
2021/11/09 15:58:16;;;;;;;23.35;6.75;;;;;;;;;;4985750;28;20025;-59
2021/11/09 16:00:46;;;;;;;21.00;7.55;;;;;;;;;;4989268;28;20034;-60
2021/11/09 16:03:11;;;;;;;28.88;7.55;;;;;;;;;;4986535;28;20063;-59
2021/11/09 16:05:37;;;;;;;54.70;8.88;;;;;;;;;;4988009;28;20053;-60
2021/11/09 16:08:04;;;;;;;36.95;9.07;;;;;;;;;;4967590;28;20119;-60
2021/11/09 16:10:33;;;;;;;30.67;7.88;;;;;;;;;;4984370;28;20036;-60
2021/11/09 16:13:02;;;;;;;27.02;8.15;;;;;;;;;;4983719;28;20042;-59
2021/11/09 16:15:32;;;;;;;35.72;8.68;;;;;;;;;;4975399;28;20100;-61
2021/11/09 16:18:00;;;;;;;24.20;8.50;;;;;;;;;;4967374;28;20650;-59
2021/11/09 16:20:27;;;;;;;26.65;8.40;;;;;;;;;;4991565;28;20109;-60
2021/11/09 16:22:59;;;;;;;33.72;7.63;;;;;;;;;;4984980;28;20046;-60
2021/11/09 16:25:25;;;;;;;29.30;7.43;;;;;;;;;;4986089;28;20493;-59
2021/11/09 16:27:54;;;;;;;28.13;7.90;;;;;;;;;;4986806;28;20037;-59
2021/11/09 16:30:23;;;;;;;30.67;7.25;;;;;;;;;;4986032;28;20034;-61
2021/11/09 16:33:05;;;;;;;33.92;8.32;;;;;;;;;;4987590;28;20116;-60
2021/11/09 16:37:57;;;;;;;25.70;8.23;;;;;;;;;;4987599;28;20030;-61
2021/11/09 16:40:28;;;;;;;35.75;8.27;;;;;;;;;;4982858;28;20182;-60
2021/11/09 16:43:05;;;;;;;26.95;7.68;;;;;;;;;;4984892;28;20030;-60
2021/11/09 16:45:34;;;;;;;43.83;8.75;;;;;;;;;;4965421;28;20035;-60
2021/11/09 16:48:05;;;;;;;33.70;9.38;;;;;;;;;;4986518;28;20038;-60
2021/11/09 16:53:09;;;;;;;34.35;7.85;;;;;;;;;;4988287;28;20041;-60
2021/11/09 16:58:33;;;;;;;37.63;9.98;;;;;;;;;;4983360;28;20046;-61
2021/11/09 18:20:21;;;;;;;20.88;6.88;;;;;;;;;;4985713;28;21042;-62
2021/11/09 18:23:08;;;;;;;26.85;7.43;;;;;;;;;;5008578;23;20070;-89
2021/11/09 18:26:00;;;;;;;30.30;8.18;;;;;;;;;;4999909;28;20093;-90
2021/11/09 18:28:27;;;;;;;24.55;7.35;;;;;;;;;;4984736;28;20038;-89
2021/11/09 18:31:01;;;;;;;18.85;7.75;;;;;;;;;;4974138;28;20057;-87
2021/11/09 18:33:28;;;;;;;31.88;7.78;;;;;;;;;;4969790;28;20038;-86
2021/11/09 18:36:05;;;;;;;;;;;;;;;;;;4969692;28;20094;-89
2021/11/09 18:38:43;;;;;;;27.10;8.13;;;;;;;;;;4985868;28;19993;-91
2021/11/09 18:41:49;;;;;;;24.58;7.57;;;;;;;;;;4996376;28;20121;-87
2021/11/09 18:44:57;;;;;;;25.73;7.13;;;;;;;;;;4944261;29;20075;-90
2021/11/09 18:47:34;;;;;;;33.17;8.35;;;;;;;;;;4929812;29;20050;-91
2021/11/09 18:50:00;;;;;;;;;;;;;;;;;;4941226;29;20030;-90
2021/11/09 18:53:04;;;;;;;25.08;7.55;;;;;;;;;;4945255;29;19915;-90
2021/11/09 18:56:08;;;;;;;32.60;8.52;;;;;;;;;;4972141;28;20035;-89
2021/11/09 19:06:46;;;;;;;;;;;;;;;;;;;;;
2021/11/09 19:23:50;;;;;;;39.33;9.43;;;;;;;;;;4734150;30;20084;-90
2021/11/09 19:30:49;;;;;;;26.55;9.27;;;;;;;;;;4718019;30;20436;-89
2021/11/09 19:41:14;;;;;;;36.63;9.00;;;;;;;;;;4748969;30;20562;-91
2021/11/09 19:44:21;;;;;;;27.70;9.68;;;;;;;;;;4704671;30;20079;-89
2021/11/09 19:54:46;;;;;;;40.88;9.55;;;;;;;;;;4686501;30;20142;-91
2021/11/09 19:57:51;;;;;;;26.88;10.43;;;;;;;;;;4684104;30;20061;-92